Terminal Aerodrome Forecast
Issued by NWS

Home | Current Version | Previous Version | Text Only | Print | Product List | Glossary On
Versions: 1 2 3 4 5 6 7 8 9 10 11 12 13 14 15 16 17 18 19 20 21 22 23 24 25 26 27 28 29 30 31 32 33 34
000
FTUS45 KBOU 081800 AAA
TAFAPA
TAF AMD
KAPA 081800Z 0818/0918 VRB04KT P6SM FEW120 BKN200
     FM082000 06005KT P6SM FEW120 BKN200
     FM090100 17007KT P6SM FEW120 BKN200
     FM090500 18006KT P6SM SCT120 BKN200
     FM091500 VRB06KT P6SM FEW130 SCT200=

USA.gov is the U.S. government's official web portal to all federal, state and local government web resources and services.